sensor_id;sensor_type;location;lat;lon;timestamp;temperature;humidity
20735;DHT22;10528;52.124;5.196;2024-02-04T00:02:17;11.10;99.90
20735;DHT22;10528;52.124;5.196;2024-02-04T00:04:49;11.10;99.90
20735;DHT22;10528;52.124;5.196;2024-02-04T00:07:17;11.10;99.90
20735;DHT22;10528;52.124;5.196;2024-02-04T00:09:44;11.10;99.90
20735;DHT22;10528;52.124;5.196;2024-02-04T00:12:11;11.10;99.90
20735;DHT22;10528;52.124;5.196;2024-02-04T00:14:38;11.10;99.90
20735;DHT22;10528;52.124;5.196;2024-02-04T00:17:07;11.10;99.90
20735;DHT22;10528;52.124;5.196;2024-02-04T00:19:34;11.10;99.90
20735;DHT22;10528;52.124;5.196;2024-02-04T00:22:01;11.10;99.90
20735;DHT22;10528;52.124;5.196;2024-02-04T00:24:28;11.10;99.90
20735;DHT22;10528;52.124;5.196;2024-02-04T00:26:55;11.10;99.90
20735;DHT22;10528;52.124;5.196;2024-02-04T00:29:22;11.00;99.90
20735;DHT22;10528;52.124;5.196;2024-02-04T00:31:48;11.00;99.90
20735;DHT22;10528;52.124;5.196;2024-02-04T00:34:15;11.00;99.90
20735;DHT22;10528;52.124;5.196;2024-02-04T00:36:43;10.90;99.90
20735;DHT22;10528;52.124;5.196;2024-02-04T00:39:10;11.00;99.90
20735;DHT22;10528;52.124;5.196;2024-02-04T00:41:37;10.90;99.90
20735;DHT22;10528;52.124;5.196;2024-02-04T00:44:04;10.90;99.90
20735;DHT22;10528;52.124;5.196;2024-02-04T00:46:31;10.90;99.90
20735;DHT22;10528;52.124;5.196;2024-02-04T00:48:59;10.90;99.90
20735;DHT22;10528;52.124;5.196;2024-02-04T00:51:26;10.90;99.90
20735;DHT22;10528;52.124;5.196;2024-02-04T00:53:53;10.90;99.90
20735;DHT22;10528;52.124;5.196;2024-02-04T00:56:21;10.80;99.90
20735;DHT22;10528;52.124;5.196;2024-02-04T00:58:48;10.80;99.90
20735;DHT22;10528;52.124;5.196;2024-02-04T01:01:15;10.80;99.90
20735;DHT22;10528;52.124;5.196;2024-02-04T01:03:42;10.70;99.90
20735;DHT22;10528;52.124;5.196;2024-02-04T01:06:09;10.90;99.90
20735;DHT22;10528;52.124;5.196;2024-02-04T01:08:36;10.90;99.90
20735;DHT22;10528;52.124;5.196;2024-02-04T01:11:07;10.80;99.90
20735;DHT22;10528;52.124;5.196;2024-02-04T01:13:34;10.80;99.90
20735;DHT22;10528;52.124;5.196;2024-02-04T01:16:00;10.80;99.90
20735;DHT22;10528;52.124;5.196;2024-02-04T01:18:28;10.80;99.90
20735;DHT22;10528;52.124;5.196;2024-02-04T01:20:55;10.80;99.90
20735;DHT22;10528;52.124;5.196;2024-02-04T01:23:21;10.80;99.90
20735;DHT22;10528;52.124;5.196;2024-02-04T01:25:48;10.80;99.90
20735;DHT22;10528;52.124;5.196;2024-02-04T01:28:15;10.80;99.90
20735;DHT22;10528;52.124;5.196;2024-02-04T01:30:42;10.80;99.90
20735;DHT22;10528;52.124;5.196;2024-02-04T01:33:09;10.80;99.90
20735;DHT22;10528;52.124;5.196;2024-02-04T01:35:36;10.80;99.90
20735;DHT22;10528;52.124;5.196;2024-02-04T01:38:03;10.80;99.90
20735;DHT22;10528;52.124;5.196;2024-02-04T01:40:30;10.80;99.90
20735;DHT22;10528;52.124;5.196;2024-02-04T01:42:57;10.80;99.90
20735;DHT22;10528;52.124;5.196;2024-02-04T01:45:24;10.80;99.90
20735;DHT22;10528;52.124;5.196;2024-02-04T01:47:51;10.80;99.90
20735;DHT22;10528;52.124;5.196;2024-02-04T01:50:20;10.70;99.90
20735;DHT22;10528;52.124;5.196;2024-02-04T01:52:49;10.70;99.90
20735;DHT22;10528;52.124;5.196;2024-02-04T01:55:17;10.70;99.90
20735;DHT22;10528;52.124;5.196;2024-02-04T01:57:47;10.70;99.90
20735;DHT22;10528;52.124;5.196;2024-02-04T02:00:16;10.60;99.90
20735;DHT22;10528;52.124;5.196;2024-02-04T02:02:48;10.70;99.90
20735;DHT22;10528;52.124;5.196;2024-02-04T02:05:18;10.60;99.90
20735;DHT22;10528;52.124;5.196;2024-02-04T02:07:45;10.60;99.90
20735;DHT22;10528;52.124;5.196;2024-02-04T02:10:14;10.60;99.90
20735;DHT22;10528;52.124;5.196;2024-02-04T02:12:52;10.60;99.90
20735;DHT22;10528;52.124;5.196;2024-02-04T02:15:34;10.50;99.90
20735;DHT22;10528;52.124;5.196;2024-02-04T02:18:14;10.60;99.90
20735;DHT22;10528;52.124;5.196;2024-02-04T02:23:43;10.60;99.90
20735;DHT22;10528;52.124;5.196;2024-02-04T02:26:33;10.60;99.90
20735;DHT22;10528;52.124;5.196;2024-02-04T02:29:00;10.60;99.90
20735;DHT22;10528;52.124;5.196;2024-02-04T02:31:27;10.60;99.90
20735;DHT22;10528;52.124;5.196;2024-02-04T02:34:12;10.60;99.90
20735;DHT22;10528;52.124;5.196;2024-02-04T02:37:08;10.60;99.90
20735;DHT22;10528;52.124;5.196;2024-02-04T02:42:20;10.60;99.90
20735;DHT22;10528;52.124;5.196;2024-02-04T02:44:50;10.70;99.90
20735;DHT22;10528;52.124;5.196;2024-02-04T02:47:19;10.70;99.90
20735;DHT22;10528;52.124;5.196;2024-02-04T02:49:51;10.60;99.90
20735;DHT22;10528;52.124;5.196;2024-02-04T02:52:23;10.70;99.90
20735;DHT22;10528;52.124;5.196;2024-02-04T02:54:50;10.70;99.90
20735;DHT22;10528;52.124;5.196;2024-02-04T02:57:17;10.60;99.90
20735;DHT22;10528;52.124;5.196;2024-02-04T02:59:44;10.60;99.90
20735;DHT22;10528;52.124;5.196;2024-02-04T03:02:10;10.70;99.90
20735;DHT22;10528;52.124;5.196;2024-02-04T03:04:40;10.60;99.90
20735;DHT22;10528;52.124;5.196;2024-02-04T03:07:07;10.60;99.90
20735;DHT22;10528;52.124;5.196;2024-02-04T03:09:34;10.50;99.90
20735;DHT22;10528;52.124;5.196;2024-02-04T03:12:01;10.50;99.90
20735;DHT22;10528;52.124;5.196;2024-02-04T03:14:28;10.50;99.90
20735;DHT22;10528;52.124;5.196;2024-02-04T03:16:55;10.40;99.90
20735;DHT22;10528;52.124;5.196;2024-02-04T03:19:22;10.40;99.90
20735;DHT22;10528;52.124;5.196;2024-02-04T03:21:49;10.40;99.90
20735;DHT22;10528;52.124;5.196;2024-02-04T03:24:16;10.30;99.90
20735;DHT22;10528;52.124;5.196;2024-02-04T03:26:44;10.30;99.90
20735;DHT22;10528;52.124;5.196;2024-02-04T03:29:11;10.30;99.90
20735;DHT22;10528;52.124;5.196;2024-02-04T03:31:37;10.30;99.90
20735;DHT22;10528;52.124;5.196;2024-02-04T03:34:05;10.20;99.90
20735;DHT22;10528;52.124;5.196;2024-02-04T03:36:32;10.20;99.90
20735;DHT22;10528;52.124;5.196;2024-02-04T03:38:59;10.20;99.90
20735;DHT22;10528;52.124;5.196;2024-02-04T03:41:26;10.20;99.90
20735;DHT22;10528;52.124;5.196;2024-02-04T03:43:53;10.20;99.90
20735;DHT22;10528;52.124;5.196;2024-02-04T03:46:21;10.30;99.90
20735;DHT22;10528;52.124;5.196;2024-02-04T03:48:49;10.20;99.90
20735;DHT22;10528;52.124;5.196;2024-02-04T03:51:18;10.30;99.90
20735;DHT22;10528;52.124;5.196;2024-02-04T03:53:47;10.30;99.90
20735;DHT22;10528;52.124;5.196;2024-02-04T03:56:16;10.30;99.90
20735;DHT22;10528;52.124;5.196;2024-02-04T03:58:43;10.20;99.90
20735;DHT22;10528;52.124;5.196;2024-02-04T04:01:11;10.30;99.90
20735;DHT22;10528;52.124;5.196;2024-02-04T04:03:40;10.20;99.90
20735;DHT22;10528;52.124;5.196;2024-02-04T04:06:10;10.30;99.90
20735;DHT22;10528;52.124;5.196;2024-02-04T04:08:38;10.20;99.90
20735;DHT22;10528;52.124;5.196;2024-02-04T04:11:08;10.30;99.90
20735;DHT22;10528;52.124;5.196;2024-02-04T04:13:37;10.20;99.90
20735;DHT22;10528;52.124;5.196;2024-02-04T04:16:05;10.20;99.90
20735;DHT22;10528;52.124;5.196;2024-02-04T04:18:32;10.20;99.90
20735;DHT22;10528;52.124;5.196;2024-02-04T04:21:00;10.20;99.90
20735;DHT22;10528;52.124;5.196;2024-02-04T04:23:27;10.20;99.90
20735;DHT22;10528;52.124;5.196;2024-02-04T04:25:53;10.10;99.90
20735;DHT22;10528;52.124;5.196;2024-02-04T04:28:20;10.10;99.90
20735;DHT22;10528;52.124;5.196;2024-02-04T04:30:47;10.10;99.90
20735;DHT22;10528;52.124;5.196;2024-02-04T04:33:14;10.10;99.90
20735;DHT22;10528;52.124;5.196;2024-02-04T04:35:42;10.10;99.90
20735;DHT22;10528;52.124;5.196;2024-02-04T04:38:09;10.20;99.90
20735;DHT22;10528;52.124;5.196;2024-02-04T04:40:35;10.10;99.90
20735;DHT22;10528;52.124;5.196;2024-02-04T04:43:02;10.20;99.90
20735;DHT22;10528;52.124;5.196;2024-02-04T04:45:30;10.10;99.90
20735;DHT22;10528;52.124;5.196;2024-02-04T04:47:56;10.10;99.90
20735;DHT22;10528;52.124;5.196;2024-02-04T04:50:24;10.20;99.90
20735;DHT22;10528;52.124;5.196;2024-02-04T04:52:51;10.10;99.90
20735;DHT22;10528;52.124;5.196;2024-02-04T04:55:19;10.10;99.90
20735;DHT22;10528;52.124;5.196;2024-02-04T04:57:46;10.10;99.90
20735;DHT22;10528;52.124;5.196;2024-02-04T05:00:14;10.10;99.90
20735;DHT22;10528;52.124;5.196;2024-02-04T05:02:41;10.20;99.90
20735;DHT22;10528;52.124;5.196;2024-02-04T05:05:11;10.10;99.90
20735;DHT22;10528;52.124;5.196;2024-02-04T05:07:38;10.10;99.90
20735;DHT22;10528;52.124;5.196;2024-02-04T05:10:07;10.20;99.90
20735;DHT22;10528;52.124;5.196;2024-02-04T05:12:35;10.10;99.90
20735;DHT22;10528;52.124;5.196;2024-02-04T05:15:04;10.20;99.90
20735;DHT22;10528;52.124;5.196;2024-02-04T05:17:32;10.20;99.90
20735;DHT22;10528;52.124;5.196;2024-02-04T05:20:00;10.30;99.90
20735;DHT22;10528;52.124;5.196;2024-02-04T05:22:29;10.20;99.90
20735;DHT22;10528;52.124;5.196;2024-02-04T05:24:57;10.10;99.90
20735;DHT22;10528;52.124;5.196;2024-02-04T05:27:24;10.20;99.90
20735;DHT22;10528;52.124;5.196;2024-02-04T05:29:51;10.20;99.90
20735;DHT22;10528;52.124;5.196;2024-02-04T05:32:17;10.10;99.90
20735;DHT22;10528;52.124;5.196;2024-02-04T05:34:44;10.20;99.90
20735;DHT22;10528;52.124;5.196;2024-02-04T05:37:12;10.20;99.90
20735;DHT22;10528;52.124;5.196;2024-02-04T05:39:39;10.20;99.90
20735;DHT22;10528;52.124;5.196;2024-02-04T05:42:06;10.10;99.90
20735;DHT22;10528;52.124;5.196;2024-02-04T05:44:33;10.10;99.90
20735;DHT22;10528;52.124;5.196;2024-02-04T05:47:00;10.20;99.90
20735;DHT22;10528;52.124;5.196;2024-02-04T05:49:27;10.20;99.90
20735;DHT22;10528;52.124;5.196;2024-02-04T05:51:54;10.20;99.90
20735;DHT22;10528;52.124;5.196;2024-02-04T05:54:21;10.20;99.90
20735;DHT22;10528;52.124;5.196;2024-02-04T05:56:48;10.20;99.90
20735;DHT22;10528;52.124;5.196;2024-02-04T05:59:14;10.20;99.90
20735;DHT22;10528;52.124;5.196;2024-02-04T06:01:43;10.20;99.90
20735;DHT22;10528;52.124;5.196;2024-02-04T06:04:11;10.20;99.90
20735;DHT22;10528;52.124;5.196;2024-02-04T06:06:38;10.20;99.90
20735;DHT22;10528;52.124;5.196;2024-02-04T06:09:05;10.20;99.90
20735;DHT22;10528;52.124;5.196;2024-02-04T06:11:33;10.20;99.90
20735;DHT22;10528;52.124;5.196;2024-02-04T06:14:00;10.20;99.90
20735;DHT22;10528;52.124;5.196;2024-02-04T06:16:27;10.30;99.90
20735;DHT22;10528;52.124;5.196;2024-02-04T06:18:54;10.30;99.90
20735;DHT22;10528;52.124;5.196;2024-02-04T06:21:23;10.30;99.90
20735;DHT22;10528;52.124;5.196;2024-02-04T06:23:51;10.30;99.90
20735;DHT22;10528;52.124;5.196;2024-02-04T06:26:18;10.30;99.90
20735;DHT22;10528;52.124;5.196;2024-02-04T06:28:45;10.30;99.90
20735;DHT22;10528;52.124;5.196;2024-02-04T06:31:13;10.30;99.90
20735;DHT22;10528;52.124;5.196;2024-02-04T06:33:41;10.40;99.90
20735;DHT22;10528;52.124;5.196;2024-02-04T06:36:11;10.40;99.90
20735;DHT22;10528;52.124;5.196;2024-02-04T06:38:38;10.40;99.90
20735;DHT22;10528;52.124;5.196;2024-02-04T06:41:05;10.40;99.90
20735;DHT22;10528;52.124;5.196;2024-02-04T06:43:32;10.40;99.90
20735;DHT22;10528;52.124;5.196;2024-02-04T06:46:02;10.40;99.90
20735;DHT22;10528;52.124;5.196;2024-02-04T06:48:30;10.40;99.90
20735;DHT22;10528;52.124;5.196;2024-02-04T06:50:57;10.40;99.90
20735;DHT22;10528;52.124;5.196;2024-02-04T06:53:24;10.40;99.90
20735;DHT22;10528;52.124;5.196;2024-02-04T06:55:51;10.40;99.90
20735;DHT22;10528;52.124;5.196;2024-02-04T06:58:18;10.50;99.90
20735;DHT22;10528;52.124;5.196;2024-02-04T07:00:46;10.50;99.90
20735;DHT22;10528;52.124;5.196;2024-02-04T07:03:13;10.50;99.90
20735;DHT22;10528;52.124;5.196;2024-02-04T07:05:41;10.50;99.90
20735;DHT22;10528;52.124;5.196;2024-02-04T07:08:09;10.50;99.90
20735;DHT22;10528;52.124;5.196;2024-02-04T07:10:36;10.50;99.90
20735;DHT22;10528;52.124;5.196;2024-02-04T07:13:03;10.50;99.90
20735;DHT22;10528;52.124;5.196;2024-02-04T07:15:30;10.60;99.90
20735;DHT22;10528;52.124;5.196;2024-02-04T07:17:57;10.50;99.90
20735;DHT22;10528;52.124;5.196;2024-02-04T07:20:24;10.50;99.90
20735;DHT22;10528;52.124;5.196;2024-02-04T07:22:51;10.60;99.90
20735;DHT22;10528;52.124;5.196;2024-02-04T07:25:18;10.60;99.90
20735;DHT22;10528;52.124;5.196;2024-02-04T07:27:45;10.60;99.90
20735;DHT22;10528;52.124;5.196;2024-02-04T07:30:12;10.60;99.90
20735;DHT22;10528;52.124;5.196;2024-02-04T07:32:39;10.60;99.90
20735;DHT22;10528;52.124;5.196;2024-02-04T07:35:06;10.60;99.90
20735;DHT22;10528;52.124;5.196;2024-02-04T07:37:36;10.60;99.90
20735;DHT22;10528;52.124;5.196;2024-02-04T07:40:03;10.70;99.90
20735;DHT22;10528;52.124;5.196;2024-02-04T07:42:32;10.70;99.90
20735;DHT22;10528;52.124;5.196;2024-02-04T07:44:59;10.70;99.90
20735;DHT22;10528;52.124;5.196;2024-02-04T07:47:26;10.60;99.90
20735;DHT22;10528;52.124;5.196;2024-02-04T07:49:52;10.60;99.90
20735;DHT22;10528;52.124;5.196;2024-02-04T07:52:19;10.70;99.90
20735;DHT22;10528;52.124;5.196;2024-02-04T07:54:46;10.70;99.90
20735;DHT22;10528;52.124;5.196;2024-02-04T07:57:13;10.80;99.90
20735;DHT22;10528;52.124;5.196;2024-02-04T07:59:40;10.70;99.90
20735;DHT22;10528;52.124;5.196;2024-02-04T08:02:07;10.70;99.90
20735;DHT22;10528;52.124;5.196;2024-02-04T08:04:34;10.90;99.90
20735;DHT22;10528;52.124;5.196;2024-02-04T08:07:02;10.90;99.90
20735;DHT22;10528;52.124;5.196;2024-02-04T08:09:29;10.90;99.90
20735;DHT22;10528;52.124;5.196;2024-02-04T08:11:56;11.00;99.90
20735;DHT22;10528;52.124;5.196;2024-02-04T08:14:25;10.90;99.90
20735;DHT22;10528;52.124;5.196;2024-02-04T08:16:52;10.80;99.90
20735;DHT22;10528;52.124;5.196;2024-02-04T08:19:19;10.80;99.90
20735;DHT22;10528;52.124;5.196;2024-02-04T08:21:46;10.80;99.90
20735;DHT22;10528;52.124;5.196;2024-02-04T08:24:13;10.80;99.90
20735;DHT22;10528;52.124;5.196;2024-02-04T08:26:41;10.80;99.90
20735;DHT22;10528;52.124;5.196;2024-02-04T08:29:07;10.90;99.90
20735;DHT22;10528;52.124;5.196;2024-02-04T08:31:34;10.90;99.90
20735;DHT22;10528;52.124;5.196;2024-02-04T08:34:01;10.80;99.90
20735;DHT22;10528;52.124;5.196;2024-02-04T08:36:29;10.80;99.90
20735;DHT22;10528;52.124;5.196;2024-02-04T08:38:59;10.80;99.90
20735;DHT22;10528;52.124;5.196;2024-02-04T08:41:26;10.80;99.90
20735;DHT22;10528;52.124;5.196;2024-02-04T08:43:53;10.80;99.90
20735;DHT22;10528;52.124;5.196;2024-02-04T08:46:19;10.80;99.90
20735;DHT22;10528;52.124;5.196;2024-02-04T08:48:47;10.80;99.90
20735;DHT22;10528;52.124;5.196;2024-02-04T08:51:14;10.80;99.90
20735;DHT22;10528;52.124;5.196;2024-02-04T08:53:43;10.80;99.90
20735;DHT22;10528;52.124;5.196;2024-02-04T08:56:10;10.90;99.90
20735;DHT22;10528;52.124;5.196;2024-02-04T08:58:36;10.90;99.90
20735;DHT22;10528;52.124;5.196;2024-02-04T09:01:04;10.90;99.90
20735;DHT22;10528;52.124;5.196;2024-02-04T09:03:32;10.90;99.90
20735;DHT22;10528;52.124;5.196;2024-02-04T09:06:00;10.90;99.90
20735;DHT22;10528;52.124;5.196;2024-02-04T09:08:27;10.90;99.90
20735;DHT22;10528;52.124;5.196;2024-02-04T09:10:54;11.00;99.90
20735;DHT22;10528;52.124;5.196;2024-02-04T09:13:21;11.00;99.90
20735;DHT22;10528;52.124;5.196;2024-02-04T09:15:50;11.10;99.90
20735;DHT22;10528;52.124;5.196;2024-02-04T09:18:18;11.10;99.90
20735;DHT22;10528;52.124;5.196;2024-02-04T09:20:45;11.10;99.90
20735;DHT22;10528;52.124;5.196;2024-02-04T09:23:12;11.40;99.90
20735;DHT22;10528;52.124;5.196;2024-02-04T09:25:39;11.60;99.90
20735;DHT22;10528;52.124;5.196;2024-02-04T09:28:06;11.80;99.90
20735;DHT22;10528;52.124;5.196;2024-02-04T09:30:33;12.00;99.90
20735;DHT22;10528;52.124;5.196;2024-02-04T09:33:00;12.20;99.90
20735;DHT22;10528;52.124;5.196;2024-02-04T09:35:27;12.20;99.90
20735;DHT22;10528;52.124;5.196;2024-02-04T09:37:54;12.00;99.90
20735;DHT22;10528;52.124;5.196;2024-02-04T09:40:22;11.90;99.90
20735;DHT22;10528;52.124;5.196;2024-02-04T09:42:49;11.70;99.90
20735;DHT22;10528;52.124;5.196;2024-02-04T09:45:18;11.70;99.90
20735;DHT22;10528;52.124;5.196;2024-02-04T09:47:46;11.70;99.90
20735;DHT22;10528;52.124;5.196;2024-02-04T09:50:16;11.60;99.90
20735;DHT22;10528;52.124;5.196;2024-02-04T09:52:50;11.70;99.90
20735;DHT22;10528;52.124;5.196;2024-02-04T09:55:21;11.70;99.90
20735;DHT22;10528;52.124;5.196;2024-02-04T09:57:49;11.60;99.90
20735;DHT22;10528;52.124;5.196;2024-02-04T10:00:19;11.60;99.90
20735;DHT22;10528;52.124;5.196;2024-02-04T10:02:50;11.50;99.90
20735;DHT22;10528;52.124;5.196;2024-02-04T10:05:17;11.50;99.90
20735;DHT22;10528;52.124;5.196;2024-02-04T10:07:44;11.50;99.90
20735;DHT22;10528;52.124;5.196;2024-02-04T10:10:12;11.50;99.90
20735;DHT22;10528;52.124;5.196;2024-02-04T10:12:39;11.50;99.90
20735;DHT22;10528;52.124;5.196;2024-02-04T10:15:08;11.50;99.90
20735;DHT22;10528;52.124;5.196;2024-02-04T10:17:35;11.50;99.90
20735;DHT22;10528;52.124;5.196;2024-02-04T10:20:03;11.50;99.90
20735;DHT22;10528;52.124;5.196;2024-02-04T10:22:30;11.50;99.90
20735;DHT22;10528;52.124;5.196;2024-02-04T10:25:10;11.60;99.90
20735;DHT22;10528;52.124;5.196;2024-02-04T10:27:42;11.60;99.90
20735;DHT22;10528;52.124;5.196;2024-02-04T10:30:10;11.60;99.90
20735;DHT22;10528;52.124;5.196;2024-02-04T10:32:37;11.80;99.90
20735;DHT22;10528;52.124;5.196;2024-02-04T10:35:04;11.80;99.90
20735;DHT22;10528;52.124;5.196;2024-02-04T10:37:32;12.00;99.90
20735;DHT22;10528;52.124;5.196;2024-02-04T10:39:59;12.20;99.90
20735;DHT22;10528;52.124;5.196;2024-02-04T10:42:26;12.20;99.90
20735;DHT22;10528;52.124;5.196;2024-02-04T10:44:57;12.20;99.90
20735;DHT22;10528;52.124;5.196;2024-02-04T10:47:31;12.20;99.90
20735;DHT22;10528;52.124;5.196;2024-02-04T10:50:02;12.40;99.90
20735;DHT22;10528;52.124;5.196;2024-02-04T10:52:38;12.50;99.90
20735;DHT22;10528;52.124;5.196;2024-02-04T10:55:10;12.20;99.90
20735;DHT22;10528;52.124;5.196;2024-02-04T10:57:39;12.10;99.90
20735;DHT22;10528;52.124;5.196;2024-02-04T11:00:08;11.80;99.90
20735;DHT22;10528;52.124;5.196;2024-02-04T11:02:39;11.70;99.90
20735;DHT22;10528;52.124;5.196;2024-02-04T11:05:08;11.70;99.90
20735;DHT22;10528;52.124;5.196;2024-02-04T11:07:36;11.60;99.90
20735;DHT22;10528;52.124;5.196;2024-02-04T11:10:04;11.40;99.90
20735;DHT22;10528;52.124;5.196;2024-02-04T11:12:33;11.30;99.90
20735;DHT22;10528;52.124;5.196;2024-02-04T11:15:06;11.30;99.90
20735;DHT22;10528;52.124;5.196;2024-02-04T11:26:52;11.20;99.90
20735;DHT22;10528;52.124;5.196;2024-02-04T11:29:20;11.30;99.90
20735;DHT22;10528;52.124;5.196;2024-02-04T11:31:48;11.30;99.90
20735;DHT22;10528;52.124;5.196;2024-02-04T11:34:16;11.40;99.90
20735;DHT22;10528;52.124;5.196;2024-02-04T11:36:43;11.30;99.90
20735;DHT22;10528;52.124;5.196;2024-02-04T11:39:18;11.40;99.90
20735;DHT22;10528;52.124;5.196;2024-02-04T11:41:49;11.40;99.90
20735;DHT22;10528;52.124;5.196;2024-02-04T11:44:23;11.40;99.90
20735;DHT22;10528;52.124;5.196;2024-02-04T11:46:54;11.40;99.90
20735;DHT22;10528;52.124;5.196;2024-02-04T11:49:25;11.40;99.90
20735;DHT22;10528;52.124;5.196;2024-02-04T11:51:52;11.50;99.90
20735;DHT22;10528;52.124;5.196;2024-02-04T11:54:20;11.50;99.90
20735;DHT22;10528;52.124;5.196;2024-02-04T11:56:50;11.50;99.90
20735;DHT22;10528;52.124;5.196;2024-02-04T11:59:24;11.50;99.90
20735;DHT22;10528;52.124;5.196;2024-02-04T12:01:57;11.60;99.90
20735;DHT22;10528;52.124;5.196;2024-02-04T12:04:27;11.60;99.90
20735;DHT22;10528;52.124;5.196;2024-02-04T12:06:56;11.60;99.90
20735;DHT22;10528;52.124;5.196;2024-02-04T12:09:24;11.70;99.90
20735;DHT22;10528;52.124;5.196;2024-02-04T12:11:54;11.70;99.90
20735;DHT22;10528;52.124;5.196;2024-02-04T12:14:21;11.70;99.90
20735;DHT22;10528;52.124;5.196;2024-02-04T12:16:49;11.80;99.90
20735;DHT22;10528;52.124;5.196;2024-02-04T12:19:15;11.80;99.90
20735;DHT22;10528;52.124;5.196;2024-02-04T12:21:44;11.80;99.90
20735;DHT22;10528;52.124;5.196;2024-02-04T12:24:11;11.80;99.90
20735;DHT22;10528;52.124;5.196;2024-02-04T12:26:39;11.80;99.90
20735;DHT22;10528;52.124;5.196;2024-02-04T12:29:06;11.80;99.90
20735;DHT22;10528;52.124;5.196;2024-02-04T12:31:33;11.90;99.90
20735;DHT22;10528;52.124;5.196;2024-02-04T12:34:00;11.80;99.90
20735;DHT22;10528;52.124;5.196;2024-02-04T12:36:30;11.80;99.90
20735;DHT22;10528;52.124;5.196;2024-02-04T12:39:00;11.90;99.90
20735;DHT22;10528;52.124;5.196;2024-02-04T12:41:28;11.80;99.90
20735;DHT22;10528;52.124;5.196;2024-02-04T12:43:57;11.90;99.90
20735;DHT22;10528;52.124;5.196;2024-02-04T12:46:26;11.80;99.90
20735;DHT22;10528;52.124;5.196;2024-02-04T12:48:55;11.80;99.90
20735;DHT22;10528;52.124;5.196;2024-02-04T12:51:30;11.80;99.90
20735;DHT22;10528;52.124;5.196;2024-02-04T12:54:11;11.80;99.90
20735;DHT22;10528;52.124;5.196;2024-02-04T12:56:50;11.80;99.90
20735;DHT22;10528;52.124;5.196;2024-02-04T12:59:31;11.80;99.90
20735;DHT22;10528;52.124;5.196;2024-02-04T13:02:03;11.90;99.90
20735;DHT22;10528;52.124;5.196;2024-02-04T13:04:39;11.90;99.90
20735;DHT22;10528;52.124;5.196;2024-02-04T13:07:10;11.90;99.90
20735;DHT22;10528;52.124;5.196;2024-02-04T13:09:45;11.80;99.90
20735;DHT22;10528;52.124;5.196;2024-02-04T13:12:14;11.90;99.90
20735;DHT22;10528;52.124;5.196;2024-02-04T13:14:42;11.90;99.90
20735;DHT22;10528;52.124;5.196;2024-02-04T13:17:11;11.80;99.90
20735;DHT22;10528;52.124;5.196;2024-02-04T13:19:38;11.90;99.90
20735;DHT22;10528;52.124;5.196;2024-02-04T13:22:07;11.90;99.90
20735;DHT22;10528;52.124;5.196;2024-02-04T13:24:37;11.90;99.90
20735;DHT22;10528;52.124;5.196;2024-02-04T13:27:04;12.00;99.90
20735;DHT22;10528;52.124;5.196;2024-02-04T13:29:34;12.00;99.90
20735;DHT22;10528;52.124;5.196;2024-02-04T13:32:01;12.00;99.90
20735;DHT22;10528;52.124;5.196;2024-02-04T13:34:28;12.00;99.90
20735;DHT22;10528;52.124;5.196;2024-02-04T13:36:56;12.00;99.90
20735;DHT22;10528;52.124;5.196;2024-02-04T13:39:23;12.00;99.90
20735;DHT22;10528;52.124;5.196;2024-02-04T13:41:49;12.00;99.90
20735;DHT22;10528;52.124;5.196;2024-02-04T13:44:16;12.00;99.90
20735;DHT22;10528;52.124;5.196;2024-02-04T13:46:43;12.00;99.90
20735;DHT22;10528;52.124;5.196;2024-02-04T13:49:10;12.00;99.90
20735;DHT22;10528;52.124;5.196;2024-02-04T13:51:40;12.00;99.90
20735;DHT22;10528;52.124;5.196;2024-02-04T13:54:12;12.00;99.90
20735;DHT22;10528;52.124;5.196;2024-02-04T13:56:45;11.90;99.90
20735;DHT22;10528;52.124;5.196;2024-02-04T13:59:12;11.90;99.90
20735;DHT22;10528;52.124;5.196;2024-02-04T14:01:39;11.80;99.90
20735;DHT22;10528;52.124;5.196;2024-02-04T14:04:07;11.70;99.90
20735;DHT22;10528;52.124;5.196;2024-02-04T14:06:34;11.70;99.90
20735;DHT22;10528;52.124;5.196;2024-02-04T14:09:02;11.70;99.90
20735;DHT22;10528;52.124;5.196;2024-02-04T14:11:29;11.70;99.90
20735;DHT22;10528;52.124;5.196;2024-02-04T14:13:56;11.70;99.90
20735;DHT22;10528;52.124;5.196;2024-02-04T14:16:23;11.60;99.90
20735;DHT22;10528;52.124;5.196;2024-02-04T14:18:51;11.70;99.90
20735;DHT22;10528;52.124;5.196;2024-02-04T14:21:20;11.80;99.90
20735;DHT22;10528;52.124;5.196;2024-02-04T14:23:47;11.70;99.90
20735;DHT22;10528;52.124;5.196;2024-02-04T14:26:17;11.70;99.90
20735;DHT22;10528;52.124;5.196;2024-02-04T14:28:45;11.80;99.90
20735;DHT22;10528;52.124;5.196;2024-02-04T14:31:12;11.70;99.90
20735;DHT22;10528;52.124;5.196;2024-02-04T14:33:40;11.80;99.90
20735;DHT22;10528;52.124;5.196;2024-02-04T14:36:08;11.80;99.90
20735;DHT22;10528;52.124;5.196;2024-02-04T14:38:36;11.80;99.90
20735;DHT22;10528;52.124;5.196;2024-02-04T14:41:05;11.80;99.90
20735;DHT22;10528;52.124;5.196;2024-02-04T14:43:33;11.70;99.90
20735;DHT22;10528;52.124;5.196;2024-02-04T14:46:01;11.80;99.90
20735;DHT22;10528;52.124;5.196;2024-02-04T14:48:29;11.80;99.90
20735;DHT22;10528;52.124;5.196;2024-02-04T14:50:56;11.80;99.90
20735;DHT22;10528;52.124;5.196;2024-02-04T14:53:26;11.80;99.90
20735;DHT22;10528;52.124;5.196;2024-02-04T14:55:53;11.80;99.90
20735;DHT22;10528;52.124;5.196;2024-02-04T14:58:23;11.90;99.90
20735;DHT22;10528;52.124;5.196;2024-02-04T15:00:50;11.90;99.90
20735;DHT22;10528;52.124;5.196;2024-02-04T15:03:17;11.90;99.90
20735;DHT22;10528;52.124;5.196;2024-02-04T15:05:44;11.90;99.90
20735;DHT22;10528;52.124;5.196;2024-02-04T15:08:11;11.90;99.90
20735;DHT22;10528;52.124;5.196;2024-02-04T15:10:38;11.90;99.90
20735;DHT22;10528;52.124;5.196;2024-02-04T15:13:05;11.90;99.90
20735;DHT22;10528;52.124;5.196;2024-02-04T15:15:33;11.90;99.90
20735;DHT22;10528;52.124;5.196;2024-02-04T15:18:00;11.90;99.90
20735;DHT22;10528;52.124;5.196;2024-02-04T15:20:28;11.80;99.90
20735;DHT22;10528;52.124;5.196;2024-02-04T15:22:57;11.90;99.90
20735;DHT22;10528;52.124;5.196;2024-02-04T15:25:27;11.90;99.90
20735;DHT22;10528;52.124;5.196;2024-02-04T15:27:56;11.90;99.90
20735;DHT22;10528;52.124;5.196;2024-02-04T15:30:23;11.90;99.90
20735;DHT22;10528;52.124;5.196;2024-02-04T15:32:50;11.90;99.90
20735;DHT22;10528;52.124;5.196;2024-02-04T15:35:19;11.90;99.90
20735;DHT22;10528;52.124;5.196;2024-02-04T15:37:46;11.90;99.90
20735;DHT22;10528;52.124;5.196;2024-02-04T15:40:13;11.80;99.90
20735;DHT22;10528;52.124;5.196;2024-02-04T15:42:41;11.80;99.90
20735;DHT22;10528;52.124;5.196;2024-02-04T15:45:09;11.80;99.90
20735;DHT22;10528;52.124;5.196;2024-02-04T15:47:50;11.80;99.90
20735;DHT22;10528;52.124;5.196;2024-02-04T15:50:21;11.80;99.90
20735;DHT22;10528;52.124;5.196;2024-02-04T15:52:49;11.80;99.90